Terminal Aerodrome Forecast
Issued by NWS

Home | Current Version | Previous Version | Text Only | Print | Product List | Glossary On
Versions: 1 2 3 4 5 6 7 8 9 10 11 12 13 14 15 16 17 18 19 20 21 22 23 24 25 26 27 28
000
FTUS41 KOKX 270835 AAA
TAFHPN
TAF AMD
KHPN 270835Z 2709/2806 00000KT P6SM SCT250
     FM271100 VRB03KT P6SM BKN250
     FM271500 16006KT P6SM SCT150 SCT250
     FM271900 17008KT P6SM VCSH SCT100 BKN250
     FM280000 VRB04KT P6SM FEW100 BKN250
      AMD NOT SKED=

USA.gov is the U.S. government's official web portal to all federal, state and local government web resources and services.